sensor_id;sensor_type;location;lat;lon;timestamp;temperature;humidity
6018;DHT22;3037;51.068;13.780;2023-05-10T00:00:12;13.00;1.00
6018;DHT22;3037;51.068;13.780;2023-05-10T00:02:38;13.10;1.00
6018;DHT22;3037;51.068;13.780;2023-05-10T00:05:04;13.00;1.00
6018;DHT22;3037;51.068;13.780;2023-05-10T00:07:30;13.00;1.00
6018;DHT22;3037;51.068;13.780;2023-05-10T00:09:55;13.00;1.00
6018;DHT22;3037;51.068;13.780;2023-05-10T00:12:21;12.90;1.00
6018;DHT22;3037;51.068;13.780;2023-05-10T00:14:46;13.00;1.00
6018;DHT22;3037;51.068;13.780;2023-05-10T00:17:12;12.90;1.00
6018;DHT22;3037;51.068;13.780;2023-05-10T00:19:37;12.90;1.00
6018;DHT22;3037;51.068;13.780;2023-05-10T00:22:03;12.80;1.00
6018;DHT22;3037;51.068;13.780;2023-05-10T00:24:28;12.70;1.00
6018;DHT22;3037;51.068;13.780;2023-05-10T00:26:54;12.70;1.00
6018;DHT22;3037;51.068;13.780;2023-05-10T00:29:19;12.70;1.00
6018;DHT22;3037;51.068;13.780;2023-05-10T00:31:45;12.70;1.00
6018;DHT22;3037;51.068;13.780;2023-05-10T00:34:10;12.60;1.00
6018;DHT22;3037;51.068;13.780;2023-05-10T00:36:36;12.60;1.00
6018;DHT22;3037;51.068;13.780;2023-05-10T00:39:02;12.50;1.00
6018;DHT22;3037;51.068;13.780;2023-05-10T00:41:29;12.50;1.00
6018;DHT22;3037;51.068;13.780;2023-05-10T00:43:54;12.50;1.00
6018;DHT22;3037;51.068;13.780;2023-05-10T00:46:20;12.50;1.00
6018;DHT22;3037;51.068;13.780;2023-05-10T00:48:46;12.40;1.00
6018;DHT22;3037;51.068;13.780;2023-05-10T00:51:13;12.30;1.00
6018;DHT22;3037;51.068;13.780;2023-05-10T00:53:38;12.30;1.00
6018;DHT22;3037;51.068;13.780;2023-05-10T00:56:04;12.30;1.00
6018;DHT22;3037;51.068;13.780;2023-05-10T00:58:31;12.30;1.00
6018;DHT22;3037;51.068;13.780;2023-05-10T01:00:56;12.20;1.00
6018;DHT22;3037;51.068;13.780;2023-05-10T01:03:23;12.10;1.00
6018;DHT22;3037;51.068;13.780;2023-05-10T01:05:48;12.20;1.00
6018;DHT22;3037;51.068;13.780;2023-05-10T01:08:14;12.20;1.00
6018;DHT22;3037;51.068;13.780;2023-05-10T01:10:40;12.20;1.00
6018;DHT22;3037;51.068;13.780;2023-05-10T01:13:06;12.20;1.00
6018;DHT22;3037;51.068;13.780;2023-05-10T01:15:32;12.20;1.00
6018;DHT22;3037;51.068;13.780;2023-05-10T01:17:58;12.10;1.00
6018;DHT22;3037;51.068;13.780;2023-05-10T01:20:24;12.00;1.00
6018;DHT22;3037;51.068;13.780;2023-05-10T01:31:30;12.00;2.40
6018;DHT22;3037;51.068;13.780;2023-05-10T01:34:07;11.90;3.50
6018;DHT22;3037;51.068;13.780;2023-05-10T01:36:45;11.90;5.10
6018;DHT22;3037;51.068;13.780;2023-05-10T01:39:20;11.90;5.80
6018;DHT22;3037;51.068;13.780;2023-05-10T01:41:54;11.80;5.60
6018;DHT22;3037;51.068;13.780;2023-05-10T01:44:35;11.90;6.10
6018;DHT22;3037;51.068;13.780;2023-05-10T01:47:07;11.90;6.40
6018;DHT22;3037;51.068;13.780;2023-05-10T01:49:39;11.70;9.20
6018;DHT22;3037;51.068;13.780;2023-05-10T01:52:11;11.90;8.50
6018;DHT22;3037;51.068;13.780;2023-05-10T01:54:44;11.80;10.60
6018;DHT22;3037;51.068;13.780;2023-05-10T01:57:15;11.80;11.90
6018;DHT22;3037;51.068;13.780;2023-05-10T01:59:43;11.70;14.80
6018;DHT22;3037;51.068;13.780;2023-05-10T02:02:10;11.70;14.50
6018;DHT22;3037;51.068;13.780;2023-05-10T02:04:38;11.70;16.20
6018;DHT22;3037;51.068;13.780;2023-05-10T02:07:06;11.80;16.90
6018;DHT22;3037;51.068;13.780;2023-05-10T02:09:33;11.60;18.90
6018;DHT22;3037;51.068;13.780;2023-05-10T02:12:01;11.60;19.80
6018;DHT22;3037;51.068;13.780;2023-05-10T02:14:29;11.60;21.30
6018;DHT22;3037;51.068;13.780;2023-05-10T02:16:56;11.60;23.20
6018;DHT22;3037;51.068;13.780;2023-05-10T02:19:23;11.50;23.50
6018;DHT22;3037;51.068;13.780;2023-05-10T02:21:50;11.60;23.50
6018;DHT22;3037;51.068;13.780;2023-05-10T02:24:17;11.60;24.50
6018;DHT22;3037;51.068;13.780;2023-05-10T02:26:45;11.60;24.90
6018;DHT22;3037;51.068;13.780;2023-05-10T02:29:12;11.60;24.40
6018;DHT22;3037;51.068;13.780;2023-05-10T02:31:39;11.70;23.60
6018;DHT22;3037;51.068;13.780;2023-05-10T02:34:06;11.70;24.60
6018;DHT22;3037;51.068;13.780;2023-05-10T02:36:33;11.70;25.50
6018;DHT22;3037;51.068;13.780;2023-05-10T02:38:59;11.60;27.10
6018;DHT22;3037;51.068;13.780;2023-05-10T02:41:27;11.60;27.70
6018;DHT22;3037;51.068;13.780;2023-05-10T02:43:56;11.60;28.50
6018;DHT22;3037;51.068;13.780;2023-05-10T02:46:23;11.60;30.00
6018;DHT22;3037;51.068;13.780;2023-05-10T02:48:48;11.50;30.00
6018;DHT22;3037;51.068;13.780;2023-05-10T02:51:16;11.60;30.00
6018;DHT22;3037;51.068;13.780;2023-05-10T02:53:44;11.60;29.80
6018;DHT22;3037;51.068;13.780;2023-05-10T02:56:25;11.70;29.10
6018;DHT22;3037;51.068;13.780;2023-05-10T02:58:53;11.60;30.70
6018;DHT22;3037;51.068;13.780;2023-05-10T03:01:20;11.50;32.30
6018;DHT22;3037;51.068;13.780;2023-05-10T03:03:45;11.60;33.40
6018;DHT22;3037;51.068;13.780;2023-05-10T03:06:11;11.60;33.40
6018;DHT22;3037;51.068;13.780;2023-05-10T03:08:36;11.50;35.40
6018;DHT22;3037;51.068;13.780;2023-05-10T03:14:08;11.50;36.40
6018;DHT22;3037;51.068;13.780;2023-05-10T03:16:46;11.50;37.90
6018;DHT22;3037;51.068;13.780;2023-05-10T03:19:29;11.40;40.20
6018;DHT22;3037;51.068;13.780;2023-05-10T03:21:59;11.50;40.30
6018;DHT22;3037;51.068;13.780;2023-05-10T03:24:27;11.50;39.30
6018;DHT22;3037;51.068;13.780;2023-05-10T03:26:55;11.50;42.50
6018;DHT22;3037;51.068;13.780;2023-05-10T03:29:22;11.50;41.70
6018;DHT22;3037;51.068;13.780;2023-05-10T03:31:50;11.50;41.60
6018;DHT22;3037;51.068;13.780;2023-05-10T03:34:16;11.50;41.90
6018;DHT22;3037;51.068;13.780;2023-05-10T03:36:42;11.50;43.20
6018;DHT22;3037;51.068;13.780;2023-05-10T03:39:08;11.60;41.70
6018;DHT22;3037;51.068;13.780;2023-05-10T03:41:34;11.50;45.70
6018;DHT22;3037;51.068;13.780;2023-05-10T03:43:59;11.50;42.50
6018;DHT22;3037;51.068;13.780;2023-05-10T03:46:25;11.60;42.70
6018;DHT22;3037;51.068;13.780;2023-05-10T03:48:50;11.50;45.30
6018;DHT22;3037;51.068;13.780;2023-05-10T03:51:16;11.50;45.50
6018;DHT22;3037;51.068;13.780;2023-05-10T03:53:41;11.50;45.60
6018;DHT22;3037;51.068;13.780;2023-05-10T03:56:07;11.50;46.20
6018;DHT22;3037;51.068;13.780;2023-05-10T03:58:32;11.50;46.90
6018;DHT22;3037;51.068;13.780;2023-05-10T04:00:58;11.50;48.20
6018;DHT22;3037;51.068;13.780;2023-05-10T04:03:23;11.50;47.50
6018;DHT22;3037;51.068;13.780;2023-05-10T04:05:58;11.40;49.30
6018;DHT22;3037;51.068;13.780;2023-05-10T04:08:25;11.40;50.00
6018;DHT22;3037;51.068;13.780;2023-05-10T04:10:50;11.50;49.80
6018;DHT22;3037;51.068;13.780;2023-05-10T04:13:15;11.50;49.70
6018;DHT22;3037;51.068;13.780;2023-05-10T04:15:41;11.50;48.70
6018;DHT22;3037;51.068;13.780;2023-05-10T04:18:06;11.50;49.60
6018;DHT22;3037;51.068;13.780;2023-05-10T04:20:32;11.60;48.10
6018;DHT22;3037;51.068;13.780;2023-05-10T04:22:58;11.50;49.10
6018;DHT22;3037;51.068;13.780;2023-05-10T04:25:23;11.60;49.50
6018;DHT22;3037;51.068;13.780;2023-05-10T04:27:49;11.60;48.80
6018;DHT22;3037;51.068;13.780;2023-05-10T04:30:14;11.60;48.20
6018;DHT22;3037;51.068;13.780;2023-05-10T04:32:40;11.60;49.70
6018;DHT22;3037;51.068;13.780;2023-05-10T04:35:06;11.70;50.20
6018;DHT22;3037;51.068;13.780;2023-05-10T04:37:31;11.70;50.50
6018;DHT22;3037;51.068;13.780;2023-05-10T04:39:57;11.80;49.40
6018;DHT22;3037;51.068;13.780;2023-05-10T04:42:22;11.80;49.00
6018;DHT22;3037;51.068;13.780;2023-05-10T04:44:48;11.90;48.50
6018;DHT22;3037;51.068;13.780;2023-05-10T04:47:13;12.00;47.60
6018;DHT22;3037;51.068;13.780;2023-05-10T04:49:38;12.00;46.20
6018;DHT22;3037;51.068;13.780;2023-05-10T04:52:04;12.10;44.70
6018;DHT22;3037;51.068;13.780;2023-05-10T04:54:29;12.10;44.60
6018;DHT22;3037;51.068;13.780;2023-05-10T04:56:55;12.20;45.50
6018;DHT22;3037;51.068;13.780;2023-05-10T04:59:20;12.30;42.40
6018;DHT22;3037;51.068;13.780;2023-05-10T05:01:46;12.30;45.10
6018;DHT22;3037;51.068;13.780;2023-05-10T05:04:11;12.40;46.20
6018;DHT22;3037;51.068;13.780;2023-05-10T05:06:37;12.50;43.40
6018;DHT22;3037;51.068;13.780;2023-05-10T05:09:02;12.50;39.20
6018;DHT22;3037;51.068;13.780;2023-05-10T05:11:28;12.50;41.00
6018;DHT22;3037;51.068;13.780;2023-05-10T05:13:53;12.60;38.70
6018;DHT22;3037;51.068;13.780;2023-05-10T05:16:19;12.60;38.90
6018;DHT22;3037;51.068;13.780;2023-05-10T05:18:44;12.70;39.60
6018;DHT22;3037;51.068;13.780;2023-05-10T05:21:16;12.80;40.70
6018;DHT22;3037;51.068;13.780;2023-05-10T05:23:42;12.90;37.60
6018;DHT22;3037;51.068;13.780;2023-05-10T05:26:08;12.90;37.10
6018;DHT22;3037;51.068;13.780;2023-05-10T05:28:34;13.00;35.00
6018;DHT22;3037;51.068;13.780;2023-05-10T05:31:02;13.10;36.00
6018;DHT22;3037;51.068;13.780;2023-05-10T05:33:28;13.10;32.40
6018;DHT22;3037;51.068;13.780;2023-05-10T05:35:53;13.30;33.10
6018;DHT22;3037;51.068;13.780;2023-05-10T05:38:19;13.40;31.90
6018;DHT22;3037;51.068;13.780;2023-05-10T05:40:45;13.50;30.60
6018;DHT22;3037;51.068;13.780;2023-05-10T05:43:11;13.70;28.60
6018;DHT22;3037;51.068;13.780;2023-05-10T05:45:36;13.70;27.90
6018;DHT22;3037;51.068;13.780;2023-05-10T05:48:02;13.70;28.00
6018;DHT22;3037;51.068;13.780;2023-05-10T05:50:27;13.80;27.70
6018;DHT22;3037;51.068;13.780;2023-05-10T05:52:53;14.00;25.60
6018;DHT22;3037;51.068;13.780;2023-05-10T05:55:18;13.80;26.80
6018;DHT22;3037;51.068;13.780;2023-05-10T05:57:44;14.40;22.30
6018;DHT22;3037;51.068;13.780;2023-05-10T06:00:10;14.40;20.60
6018;DHT22;3037;51.068;13.780;2023-05-10T06:02:35;14.70;20.00
6018;DHT22;3037;51.068;13.780;2023-05-10T06:05:01;14.70;20.30
6018;DHT22;3037;51.068;13.780;2023-05-10T06:07:27;15.10;18.10
6018;DHT22;3037;51.068;13.780;2023-05-10T06:09:53;15.40;12.20
6018;DHT22;3037;51.068;13.780;2023-05-10T06:12:18;17.70;1.00
6018;DHT22;3037;51.068;13.780;2023-05-10T06:14:44;19.70;1.00
6018;DHT22;3037;51.068;13.780;2023-05-10T06:17:09;21.50;1.00
6018;DHT22;3037;51.068;13.780;2023-05-10T06:19:35;21.60;1.00
6018;DHT22;3037;51.068;13.780;2023-05-10T06:22:00;22.10;1.00
6018;DHT22;3037;51.068;13.780;2023-05-10T06:24:26;22.30;1.00
6018;DHT22;3037;51.068;13.780;2023-05-10T06:26:52;23.70;1.00
6018;DHT22;3037;51.068;13.780;2023-05-10T06:29:17;23.10;1.00
6018;DHT22;3037;51.068;13.780;2023-05-10T06:31:43;22.90;1.00
6018;DHT22;3037;51.068;13.780;2023-05-10T06:34:08;23.30;1.00
6018;DHT22;3037;51.068;13.780;2023-05-10T06:36:34;22.90;1.00
6018;DHT22;3037;51.068;13.780;2023-05-10T06:39:00;22.20;1.00
6018;DHT22;3037;51.068;13.780;2023-05-10T06:41:26;22.50;1.00
6018;DHT22;3037;51.068;13.780;2023-05-10T06:43:51;23.10;1.00
6018;DHT22;3037;51.068;13.780;2023-05-10T06:46:17;23.50;1.00
6018;DHT22;3037;51.068;13.780;2023-05-10T06:48:42;23.40;1.00
6018;DHT22;3037;51.068;13.780;2023-05-10T06:51:08;24.40;1.00
6018;DHT22;3037;51.068;13.780;2023-05-10T06:53:33;24.90;1.00
6018;DHT22;3037;51.068;13.780;2023-05-10T06:55:59;25.10;1.00
6018;DHT22;3037;51.068;13.780;2023-05-10T06:58:24;25.80;1.00
6018;DHT22;3037;51.068;13.780;2023-05-10T07:00:50;26.30;1.00
6018;DHT22;3037;51.068;13.780;2023-05-10T07:03:16;25.80;1.00
6018;DHT22;3037;51.068;13.780;2023-05-10T07:05:41;24.50;1.00
6018;DHT22;3037;51.068;13.780;2023-05-10T07:08:07;25.60;1.00
6018;DHT22;3037;51.068;13.780;2023-05-10T07:10:33;25.70;1.00
6018;DHT22;3037;51.068;13.780;2023-05-10T07:12:59;25.40;1.00
6018;DHT22;3037;51.068;13.780;2023-05-10T07:15:25;25.20;1.00
6018;DHT22;3037;51.068;13.780;2023-05-10T07:17:51;25.10;1.00
6018;DHT22;3037;51.068;13.780;2023-05-10T07:20:17;25.00;1.00
6018;DHT22;3037;51.068;13.780;2023-05-10T07:22:42;24.60;1.00
6018;DHT22;3037;51.068;13.780;2023-05-10T07:25:08;25.20;1.00
6018;DHT22;3037;51.068;13.780;2023-05-10T07:27:33;24.80;1.00
6018;DHT22;3037;51.068;13.780;2023-05-10T07:29:59;26.40;1.00
6018;DHT22;3037;51.068;13.780;2023-05-10T07:32:25;27.40;1.00
6018;DHT22;3037;51.068;13.780;2023-05-10T07:34:51;28.20;1.00
6018;DHT22;3037;51.068;13.780;2023-05-10T07:37:17;28.40;1.00
6018;DHT22;3037;51.068;13.780;2023-05-10T07:39:42;28.00;1.00
6018;DHT22;3037;51.068;13.780;2023-05-10T07:42:08;28.60;1.00
6018;DHT22;3037;51.068;13.780;2023-05-10T07:44:33;27.20;1.00
6018;DHT22;3037;51.068;13.780;2023-05-10T07:46:59;26.60;1.00
6018;DHT22;3037;51.068;13.780;2023-05-10T07:49:25;27.10;1.00
6018;DHT22;3037;51.068;13.780;2023-05-10T07:51:50;26.50;1.00
6018;DHT22;3037;51.068;13.780;2023-05-10T07:54:16;29.40;1.00
6018;DHT22;3037;51.068;13.780;2023-05-10T07:56:42;30.50;1.00
6018;DHT22;3037;51.068;13.780;2023-05-10T07:59:16;30.10;1.00
6018;DHT22;3037;51.068;13.780;2023-05-10T08:01:42;27.90;1.00
6018;DHT22;3037;51.068;13.780;2023-05-10T08:04:08;28.60;1.00
6018;DHT22;3037;51.068;13.780;2023-05-10T08:06:34;28.50;1.00
6018;DHT22;3037;51.068;13.780;2023-05-10T08:08:59;28.50;1.00
6018;DHT22;3037;51.068;13.780;2023-05-10T08:11:25;29.00;1.00
6018;DHT22;3037;51.068;13.780;2023-05-10T08:13:51;30.30;1.00
6018;DHT22;3037;51.068;13.780;2023-05-10T08:16:17;29.00;1.00
6018;DHT22;3037;51.068;13.780;2023-05-10T08:18:44;29.90;1.00
6018;DHT22;3037;51.068;13.780;2023-05-10T08:21:13;30.30;1.00
6018;DHT22;3037;51.068;13.780;2023-05-10T08:23:39;29.00;1.00
6018;DHT22;3037;51.068;13.780;2023-05-10T08:26:05;27.40;1.00
6018;DHT22;3037;51.068;13.780;2023-05-10T08:28:30;28.40;1.00
6018;DHT22;3037;51.068;13.780;2023-05-10T08:30:56;28.30;1.00
6018;DHT22;3037;51.068;13.780;2023-05-10T08:33:22;29.70;1.00
6018;DHT22;3037;51.068;13.780;2023-05-10T08:35:47;28.60;1.00
6018;DHT22;3037;51.068;13.780;2023-05-10T08:38:13;28.10;1.00
6018;DHT22;3037;51.068;13.780;2023-05-10T08:40:42;29.40;1.00
6018;DHT22;3037;51.068;13.780;2023-05-10T08:43:09;31.20;1.00
6018;DHT22;3037;51.068;13.780;2023-05-10T08:45:39;30.20;1.00
6018;DHT22;3037;51.068;13.780;2023-05-10T08:48:07;28.30;1.00
6018;DHT22;3037;51.068;13.780;2023-05-10T08:50:36;26.50;1.00
6018;DHT22;3037;51.068;13.780;2023-05-10T08:53:05;26.90;1.00
6018;DHT22;3037;51.068;13.780;2023-05-10T08:55:32;27.10;1.00
6018;DHT22;3037;51.068;13.780;2023-05-10T08:57:59;29.20;1.00
6018;DHT22;3037;51.068;13.780;2023-05-10T09:00:24;27.60;1.00
6018;DHT22;3037;51.068;13.780;2023-05-10T09:02:50;28.00;1.00
6018;DHT22;3037;51.068;13.780;2023-05-10T09:05:16;27.30;1.00
6018;DHT22;3037;51.068;13.780;2023-05-10T09:07:43;26.80;1.00
6018;DHT22;3037;51.068;13.780;2023-05-10T09:10:09;26.40;1.00
6018;DHT22;3037;51.068;13.780;2023-05-10T09:12:35;26.20;1.00
6018;DHT22;3037;51.068;13.780;2023-05-10T09:15:01;26.90;1.00
6018;DHT22;3037;51.068;13.780;2023-05-10T09:17:29;26.90;1.00
6018;DHT22;3037;51.068;13.780;2023-05-10T09:20:02;27.10;1.00
6018;DHT22;3037;51.068;13.780;2023-05-10T09:22:30;27.70;1.00
6018;DHT22;3037;51.068;13.780;2023-05-10T09:27:30;28.20;1.00
6018;DHT22;3037;51.068;13.780;2023-05-10T09:29:56;29.50;1.00
6018;DHT22;3037;51.068;13.780;2023-05-10T09:32:21;27.30;1.00
6018;DHT22;3037;51.068;13.780;2023-05-10T09:34:49;29.60;1.00
6018;DHT22;3037;51.068;13.780;2023-05-10T09:37:15;29.10;1.00
6018;DHT22;3037;51.068;13.780;2023-05-10T09:39:40;29.50;1.00
6018;DHT22;3037;51.068;13.780;2023-05-10T09:42:08;29.00;1.00
6018;DHT22;3037;51.068;13.780;2023-05-10T09:44:34;26.80;1.00
6018;DHT22;3037;51.068;13.780;2023-05-10T09:47:01;27.70;1.00
6018;DHT22;3037;51.068;13.780;2023-05-10T09:49:27;27.70;1.00
6018;DHT22;3037;51.068;13.780;2023-05-10T09:52:01;28.30;1.00
6018;DHT22;3037;51.068;13.780;2023-05-10T09:54:27;29.90;1.00
6018;DHT22;3037;51.068;13.780;2023-05-10T09:56:53;26.70;1.00
6018;DHT22;3037;51.068;13.780;2023-05-10T09:59:18;27.00;1.00
6018;DHT22;3037;51.068;13.780;2023-05-10T10:01:50;28.40;1.00
6018;DHT22;3037;51.068;13.780;2023-05-10T10:04:17;28.60;1.00
6018;DHT22;3037;51.068;13.780;2023-05-10T10:06:42;29.40;1.00
6018;DHT22;3037;51.068;13.780;2023-05-10T10:09:09;28.20;1.00
6018;DHT22;3037;51.068;13.780;2023-05-10T10:11:36;27.60;1.00
6018;DHT22;3037;51.068;13.780;2023-05-10T10:14:02;27.60;1.00
6018;DHT22;3037;51.068;13.780;2023-05-10T10:16:31;26.50;1.00
6018;DHT22;3037;51.068;13.780;2023-05-10T10:18:57;26.40;1.00
6018;DHT22;3037;51.068;13.780;2023-05-10T10:21:23;28.50;1.00
6018;DHT22;3037;51.068;13.780;2023-05-10T10:23:49;27.20;1.00
6018;DHT22;3037;51.068;13.780;2023-05-10T10:26:16;25.90;1.00
6018;DHT22;3037;51.068;13.780;2023-05-10T10:31:23;26.50;1.00
6018;DHT22;3037;51.068;13.780;2023-05-10T10:34:01;27.10;1.00
6018;DHT22;3037;51.068;13.780;2023-05-10T10:36:29;25.70;1.00
6018;DHT22;3037;51.068;13.780;2023-05-10T10:39:00;25.90;1.00
6018;DHT22;3037;51.068;13.780;2023-05-10T10:41:30;24.60;1.00
6018;DHT22;3037;51.068;13.780;2023-05-10T10:49:32;24.20;1.00
6018;DHT22;3037;51.068;13.780;2023-05-10T10:52:27;24.20;1.00
6018;DHT22;3037;51.068;13.780;2023-05-10T10:55:10;23.90;1.00
6018;DHT22;3037;51.068;13.780;2023-05-10T10:57:53;24.90;1.00
6018;DHT22;3037;51.068;13.780;2023-05-10T11:00:31;25.40;1.00
6018;DHT22;3037;51.068;13.780;2023-05-10T11:03:04;25.50;1.00
6018;DHT22;3037;51.068;13.780;2023-05-10T11:05:48;25.30;1.00
6018;DHT22;3037;51.068;13.780;2023-05-10T11:08:28;25.20;1.00
6018;DHT22;3037;51.068;13.780;2023-05-10T11:13:37;25.00;1.00
6018;DHT22;3037;51.068;13.780;2023-05-10T11:16:11;25.20;1.00
6018;DHT22;3037;51.068;13.780;2023-05-10T11:18:37;25.10;1.00
6018;DHT22;3037;51.068;13.780;2023-05-10T11:21:03;24.20;1.00
6018;DHT22;3037;51.068;13.780;2023-05-10T11:23:52;23.60;1.00
6018;DHT22;3037;51.068;13.780;2023-05-10T11:26:21;25.00;1.00
6018;DHT22;3037;51.068;13.780;2023-05-10T11:28:48;25.60;1.00
6018;DHT22;3037;51.068;13.780;2023-05-10T11:31:18;25.30;1.00
6018;DHT22;3037;51.068;13.780;2023-05-10T11:33:52;25.50;1.00
6018;DHT22;3037;51.068;13.780;2023-05-10T11:36:23;25.30;1.00
6018;DHT22;3037;51.068;13.780;2023-05-10T11:38:48;25.10;1.00
6018;DHT22;3037;51.068;13.780;2023-05-10T11:41:16;23.30;1.00
6018;DHT22;3037;51.068;13.780;2023-05-10T11:43:42;22.80;1.00
6018;DHT22;3037;51.068;13.780;2023-05-10T11:46:11;23.20;1.00
6018;DHT22;3037;51.068;13.780;2023-05-10T11:48:39;23.10;1.00
6018;DHT22;3037;51.068;13.780;2023-05-10T11:51:05;23.20;1.00
6018;DHT22;3037;51.068;13.780;2023-05-10T11:53:32;22.90;1.00
6018;DHT22;3037;51.068;13.780;2023-05-10T11:56:07;23.10;1.00
6018;DHT22;3037;51.068;13.780;2023-05-10T11:58:35;23.20;1.00
6018;DHT22;3037;51.068;13.780;2023-05-10T12:01:01;23.10;1.00
6018;DHT22;3037;51.068;13.780;2023-05-10T12:03:27;23.20;1.00
6018;DHT22;3037;51.068;13.780;2023-05-10T12:05:54;23.60;1.00
6018;DHT22;3037;51.068;13.780;2023-05-10T12:08:22;23.90;1.00
6018;DHT22;3037;51.068;13.780;2023-05-10T12:10:47;23.80;1.00
6018;DHT22;3037;51.068;13.780;2023-05-10T12:13:14;23.70;1.00
6018;DHT22;3037;51.068;13.780;2023-05-10T12:15:40;23.80;1.00
6018;DHT22;3037;51.068;13.780;2023-05-10T12:18:11;24.50;1.00
6018;DHT22;3037;51.068;13.780;2023-05-10T12:20:38;25.10;1.00
6018;DHT22;3037;51.068;13.780;2023-05-10T12:23:04;24.10;1.00
6018;DHT22;3037;51.068;13.780;2023-05-10T12:25:32;24.50;1.00
6018;DHT22;3037;51.068;13.780;2023-05-10T12:27:59;24.20;1.00
6018;DHT22;3037;51.068;13.780;2023-05-10T12:30:30;23.50;1.00
6018;DHT22;3037;51.068;13.780;2023-05-10T12:33:07;23.30;1.00
6018;DHT22;3037;51.068;13.780;2023-05-10T12:35:33;23.00;1.00
6018;DHT22;3037;51.068;13.780;2023-05-10T12:37:59;23.20;1.00
6018;DHT22;3037;51.068;13.780;2023-05-10T12:40:25;23.60;1.00
6018;DHT22;3037;51.068;13.780;2023-05-10T12:42:50;23.70;1.00
6018;DHT22;3037;51.068;13.780;2023-05-10T12:45:17;24.70;1.00
6018;DHT22;3037;51.068;13.780;2023-05-10T12:47:43;25.30;1.00
6018;DHT22;3037;51.068;13.780;2023-05-10T12:50:09;25.20;1.00
6018;DHT22;3037;51.068;13.780;2023-05-10T12:52:35;25.10;1.00
6018;DHT22;3037;51.068;13.780;2023-05-10T12:55:01;25.00;1.00
6018;DHT22;3037;51.068;13.780;2023-05-10T12:57:26;24.20;1.00
6018;DHT22;3037;51.068;13.780;2023-05-10T12:59:54;24.00;1.00
6018;DHT22;3037;51.068;13.780;2023-05-10T13:02:19;24.00;1.00
6018;DHT22;3037;51.068;13.780;2023-05-10T13:04:46;24.60;1.00
6018;DHT22;3037;51.068;13.780;2023-05-10T13:07:12;24.00;1.00
6018;DHT22;3037;51.068;13.780;2023-05-10T13:09:39;24.50;1.00
6018;DHT22;3037;51.068;13.780;2023-05-10T13:12:05;24.80;1.00
6018;DHT22;3037;51.068;13.780;2023-05-10T13:14:31;24.90;1.00
6018;DHT22;3037;51.068;13.780;2023-05-10T13:16:57;25.10;1.00
6018;DHT22;3037;51.068;13.780;2023-05-10T13:19:22;25.40;1.00
6018;DHT22;3037;51.068;13.780;2023-05-10T13:21:48;25.40;1.00
6018;DHT22;3037;51.068;13.780;2023-05-10T13:24:13;25.30;1.00
6018;DHT22;3037;51.068;13.780;2023-05-10T13:26:42;25.00;1.00
6018;DHT22;3037;51.068;13.780;2023-05-10T13:29:08;25.20;1.00
6018;DHT22;3037;51.068;13.780;2023-05-10T13:31:34;25.20;1.00
6018;DHT22;3037;51.068;13.780;2023-05-10T13:34:00;25.10;1.00
6018;DHT22;3037;51.068;13.780;2023-05-10T13:36:25;24.90;1.00
6018;DHT22;3037;51.068;13.780;2023-05-10T13:38:51;24.60;1.00
6018;DHT22;3037;51.068;13.780;2023-05-10T13:41:17;24.70;1.00
6018;DHT22;3037;51.068;13.780;2023-05-10T13:43:42;24.80;1.00
6018;DHT22;3037;51.068;13.780;2023-05-10T13:46:08;24.90;1.00
6018;DHT22;3037;51.068;13.780;2023-05-10T13:48:36;24.80;1.00
6018;DHT22;3037;51.068;13.780;2023-05-10T13:51:02;23.50;1.00
6018;DHT22;3037;51.068;13.780;2023-05-10T13:53:28;24.60;1.00
6018;DHT22;3037;51.068;13.780;2023-05-10T13:55:53;24.30;1.00
6018;DHT22;3037;51.068;13.780;2023-05-10T13:58:19;24.30;1.00
6018;DHT22;3037;51.068;13.780;2023-05-10T14:00:44;24.30;1.00
6018;DHT22;3037;51.068;13.780;2023-05-10T14:03:10;24.40;1.00
6018;DHT22;3037;51.068;13.780;2023-05-10T14:05:36;24.40;1.00
6018;DHT22;3037;51.068;13.780;2023-05-10T14:08:01;24.10;1.00
6018;DHT22;3037;51.068;13.780;2023-05-10T14:10:28;24.20;1.00
6018;DHT22;3037;51.068;13.780;2023-05-10T14:12:54;24.30;1.00
6018;DHT22;3037;51.068;13.780;2023-05-10T14:15:20;24.20;1.00
6018;DHT22;3037;51.068;13.780;2023-05-10T14:17:45;24.30;1.00
6018;DHT22;3037;51.068;13.780;2023-05-10T14:20:11;24.20;1.00
6018;DHT22;3037;51.068;13.780;2023-05-10T14:22:36;24.10;1.00
6018;DHT22;3037;51.068;13.780;2023-05-10T14:25:02;24.20;1.00
6018;DHT22;3037;51.068;13.780;2023-05-10T14:27:29;24.30;1.00
6018;DHT22;3037;51.068;13.780;2023-05-10T14:29:55;24.30;1.00
6018;DHT22;3037;51.068;13.780;2023-05-10T14:32:20;24.30;1.00
6018;DHT22;3037;51.068;13.780;2023-05-10T14:34:46;24.20;1.00
6018;DHT22;3037;51.068;13.780;2023-05-10T14:37:13;24.00;1.00
6018;DHT22;3037;51.068;13.780;2023-05-10T14:39:39;23.60;1.00
6018;DHT22;3037;51.068;13.780;2023-05-10T14:42:04;23.60;1.00
6018;DHT22;3037;51.068;13.780;2023-05-10T14:44:30;23.70;1.00
6018;DHT22;3037;51.068;13.780;2023-05-10T14:46:55;23.50;1.00
6018;DHT22;3037;51.068;13.780;2023-05-10T14:49:22;23.40;1.00
6018;DHT22;3037;51.068;13.780;2023-05-10T14:51:49;23.20;1.00
6018;DHT22;3037;51.068;13.780;2023-05-10T14:54:15;23.00;1.00
6018;DHT22;3037;51.068;13.780;2023-05-10T14:56:40;23.00;1.00
6018;DHT22;3037;51.068;13.780;2023-05-10T14:59:07;22.90;1.00
6018;DHT22;3037;51.068;13.780;2023-05-10T15:01:33;23.00;1.00
6018;DHT22;3037;51.068;13.780;2023-05-10T15:04:00;22.90;1.00
6018;DHT22;3037;51.068;13.780;2023-05-10T15:06:31;22.70;1.00
6018;DHT22;3037;51.068;13.780;2023-05-10T15:08:57;22.50;1.00
6018;DHT22;3037;51.068;13.780;2023-05-10T15:11:22;22.30;1.00
6018;DHT22;3037;51.068;13.780;2023-05-10T15:13:48;22.20;1.00
6018;DHT22;3037;51.068;13.780;2023-05-10T15:16:13;22.20;1.00
6018;DHT22;3037;51.068;13.780;2023-05-10T15:18:39;21.90;1.00
6018;DHT22;3037;51.068;13.780;2023-05-10T15:21:04;21.60;1.00
6018;DHT22;3037;51.068;13.780;2023-05-10T15:23:30;21.40;1.00
6018;DHT22;3037;51.068;13.780;2023-05-10T15:25:55;21.60;1.00
6018;DHT22;3037;51.068;13.780;2023-05-10T15:28:21;21.60;1.00
6018;DHT22;3037;51.068;13.780;2023-05-10T15:30:47;21.30;1.00
6018;DHT22;3037;51.068;13.780;2023-05-10T15:33:13;21.00;1.00
6018;DHT22;3037;51.068;13.780;2023-05-10T15:35:38;21.20;1.00
6018;DHT22;3037;51.068;13.780;2023-05-10T15:38:05;21.00;1.00
6018;DHT22;3037;51.068;13.780;2023-05-10T15:40:31;21.00;1.00
6018;DHT22;3037;51.068;13.780;2023-05-10T15:42:56;21.00;1.00
6018;DHT22;3037;51.068;13.780;2023-05-10T15:45:22;21.00;1.00
6018;DHT22;3037;51.068;13.780;2023-05-10T15:47:47;20.80;1.00
6018;DHT22;3037;51.068;13.780;2023-05-10T15:50:14;20.60;1.00
6018;DHT22;3037;51.068;13.780;2023-05-10T15:52:40;20.60;1.00
6018;DHT22;3037;51.068;13.780;2023-05-10T15:55:07;20.70;1.00
6018;DHT22;3037;51.068;13.780;2023-05-10T15:57:40;20.50;1.00
6018;DHT22;3037;51.068;13.780;2023-05-10T16:00:07;20.40;1.00
6018;DHT22;3037;51.068;13.780;2023-05-10T16:02:34;20.40;1.00
6018;DHT22;3037;51.068;13.780;2023-05-10T16:04:59;20.20;1.00
6018;DHT22;3037;51.068;13.780;2023-05-10T16:07:25;20.10;1.00
6018;DHT22;3037;51.068;13.780;2023-05-10T16:09:50;20.10;1.00
6018;DHT22;3037;51.068;13.780;2023-05-10T16:12:16;20.00;1.00
6018;DHT22;3037;51.068;13.780;2023-05-10T16:14:41;20.10;5.20
6018;DHT22;3037;51.068;13.780;2023-05-10T16:17:07;20.30;4.40
6018;DHT22;3037;51.068;13.780;2023-05-10T16:19:32;20.20;4.70